METAR ET TAF INFORMATION
METAR FOR LFPN
ADDS - METARS form results

(0620 UTC 27 June 2022)
Data provider http://aviationweather.gov/metar/data/
 
METAR text: LFPN 270600Z AUTO 21003KT CAVOK 14/12 Q1016 TEMPO SCT050TCU
Conditions at: LFPN (TOUSSUS LE NOBLE, FR) observed 0600 UTC 27 June 2022
Temperature: 14.0°C (57°F)
Dewpoint: 12.0°C (54°F) [RH = 88%]
Pressure (altimeter): 30.00 inches Hg (1016.0 mb)
Winds: from the SSW (210 degrees) at 3 MPH (3 knots; 1.5 m/s)
Visibility: 6 or more miles (10+ km)
Ceiling: ceiling and visibility are OK
Clouds: unknown
Weather: no significant weather observed at this time

METAR text: LFPN 270530Z AUTO 25002KT CAVOK 13/12 Q1016 TEMPO SCT050TCU
Conditions at: LFPN (TOUSSUS LE NOBLE, FR) observed 0530 UTC 27 June 2022
Temperature: 13.0°C (55°F)
Dewpoint: 12.0°C (54°F) [RH = 94%]
Pressure (altimeter): 30.00 inches Hg (1016.0 mb)
Winds: from the WSW (250 degrees) at 2 MPH (2 knots; 1.0 m/s)
Visibility: 6 or more miles (10+ km)
Ceiling: ceiling and visibility are OK
Clouds: unknown
Weather: no significant weather observed at this time

Forecast for: LFPN (TOUSSUS LE NOBLE, FR)
Text: TAF LFPN 270500Z 2706/2715 23005KT CAVOK
Forecast period: 0600 to 1500 UTC 27 June 2022
Forecast type: FROM: standard forecast or significant change
Winds: from the SW (230 degrees) at 6 MPH (5 knots; 2.6 m/s)
Visibility: 6 or more miles (10+ km)
Ceiling: unknown
Clouds: missing
Weather: NSW  (no significant weather)
Text: PROB30
Forecast period: 0600 to 0900 UTC 27 June 2022
Forecast type: TEMPORARY: The following changes expected for less than half the time period
Visibility: missing
Ceiling: at least 12,000 feet AGL
Clouds: scattered clouds at 5000 feet AGL
Weather: -SHRA  (light rain showers)

 AÉROPORT DE AÉROPORT

 INFORMATIONS DE PISTE
Piste 07L Longueur de la piste 3609 ft Largeur de la piste 98 ft
Élévation de la piste 538 ft Seuil de la piste déplacés 0 ft Runway heading 70
Piste 25R Longueur de la piste 3609 ft Largeur de la piste 98 ft
Élévation de la piste 503 ft Seuil de la piste déplacés 0 ft Runway heading 250
Piste 07R Longueur de la piste 3445 ft Largeur de la piste 98 ft
Élévation de la piste 536 ft Seuil de la piste déplacés 0 ft Runway heading 70
Piste 25L Longueur de la piste 3445 ft Largeur de la piste 98 ft
Élévation de la piste 499 ft Seuil de la piste déplacés 0 ft Runway heading 250

 AÉROPORT FRÉQUENCES
Type ATIS Nom ATIS Féquence 127.475 MHZ
Type GND Nom GND Féquence 121.85 MHZ
Type TWR Nom TWR Féquence 119.3 MHZ

 SIDA DE NAVIGATION
Type VOR Nom Toussus Féquence 108250 KHZ